• Join FlightAware (Why Join?)
  • Login
  • US Flag 
04:16AM EDT


 

Airport Tracker/Info


-or-


 

Live Flight TrackerFlight Track Log ✈ ASA10 ✈ 21-Jun-2013 ✈ KSEA - KMCO

Flight Track Log - Related Links

Times and Time Zones

All times are in EDT time to prevent confusion due to time zone crossing. See the ASA10 flight status page for this flight to view local times or setup timezone preferences in your user account.

Time Position Orientation Groundspeed Altitude Reporting Facility
EDT Latitude Longitude Course Direction KTS MPH feet Rate Location/Type
01:00AM 47.4700 -122.3075 359° North 171 197 1,400  Level Seattle Center
01:01AM 47.5408 -122.3086 359° North 217 250 3,600 2,160 Climbing Seattle Center
01:02AM 47.5986 -122.3550 332° Northwest 242 278 6,300 2,580 Climbing Seattle Center
01:03AM 47.6381 -122.4414 304° West 265 305 8,900 2,280 Climbing Seattle Center
01:04AM 47.5772 -122.4944 210° Southwest 285 328 10,900 1,560 Climbing Seattle Center
01:05AM 47.4928 -122.4422 157° South 336 387 12,100 1,620 Climbing Seattle Center
01:06AM 47.3967 -122.3928 161° South 372 428 14,200 2,100 Climbing Seattle Center
01:07AM 47.2981 -122.3403 160° South 380 437 16,400 1,800 Climbing Seattle Center
01:08AM 47.1933 -122.2856 160° South 400 460 17,900 1,620 Climbing Seattle Center
01:09AM 47.0911 -122.2344 161° South 416 479 19,700 1,740 Climbing Seattle Center
01:10AM 46.9789 -122.1753 160° South 431 496 21,500 1,620 Climbing Seattle Center
01:11AM 46.8639 -122.1144 160° South 439 505 23,000 1,620 Climbing Seattle Center
01:12AM 46.7203 -122.0419 161° South 455 524 24,800 1,500 Climbing Seattle Center
01:13AM 46.6083 -121.9547 152° Southeast 465 535 26,100 1,260 Climbing Seattle Center
01:14AM 46.5419 -121.7981 122° Southeast 459 528 27,400 1,140 Climbing Seattle Center
01:15AM 46.4772 -121.6367 120° Southeast 467 537 28,500 960 Climbing Seattle Center
01:16AM 46.4175 -121.4836 119° Southeast 474 545 29,400 1,140 Climbing Seattle Center
01:17AM 46.3500 -121.3169 120° Southeast 480 552 30,800 1,200 Climbing Seattle Center
01:18AM 46.2833 -121.1511 120° Southeast 477 549 31,900 1,080 Climbing Seattle Center
01:19AM 46.2158 -120.9867 121° Southeast 476 548 33,000 1,080 Climbing Seattle Center
01:20AM 46.1492 -120.8244 121° Southeast 473 544 34,100 900 Climbing Seattle Center
01:21AM 46.0831 -120.6617 120° Southeast 470 541 34,900 420 Climbing Seattle Center
01:22AM 46.0153 -120.4992 121° Southeast 473 544 35,000  Climbing Seattle Center
01:23AM 45.9333 -120.3036 121° Southeast 475 547 35,000  Level Seattle Center
01:24AM 45.8650 -120.1406 121° Southeast 477 549 35,000  Level Seattle Center
01:25AM 45.7967 -119.9786 121° Southeast 475 547 35,000  Level Seattle Center
01:26AM 45.7269 -119.8161 122° Southeast 477 549 35,000  Level Seattle Center
01:27AM 45.6586 -119.6556 121° Southeast 473 544 35,000  Level Seattle Center
01:28AM 45.5903 -119.4975 122° Southeast 468 539 35,000  Level Seattle Center
01:29AM 45.5214 -119.3372 121° Southeast 471 542 35,000  Level Seattle Center
01:30AM 45.4517 -119.1783 122° Southeast 472 543 35,000  Level Seattle Center
01:31AM 45.3825 -119.0189 122° Southeast 472 543 35,000  Level Seattle Center
01:32AM 45.3131 -118.8603 122° Southeast 471 542 35,000  Level Seattle Center
01:33AM 45.2422 -118.7022 122° Southeast 474 545 35,000  Level Seattle Center
01:34AM 45.1731 -118.5464 122° Southeast 469 540 35,000  Level Seattle Center
01:35AM 45.1053 -118.3933 122° Southeast 461 531 35,000  Level Seattle Center
01:36AM 45.0619 -118.3008 124° Southeast 462 532 35,000  Level Salt Lake Center
01:37AM 44.9933 -118.1483 122° Southeast 462 532 35,000  Level Salt Lake Center
01:38AM 44.9167 -117.9800 123° Southeast 461 531 35,000  Level Salt Lake Center
01:39AM 44.8508 -117.8344 123° Southeast 461 531 35,000  Level Salt Lake Center
01:40AM 44.7933 -117.6794 118° Southeast 465 535 35,000  Level Salt Lake Center
01:41AM 44.7303 -117.4947 116° Southeast 470 541 35,000  Level Salt Lake Center
01:42AM 44.6742 -117.3375 117° Southeast 472 543 35,000  Level Salt Lake Center
01:43AM 44.6178 -117.1808 117° Southeast 471 542 35,000  Level Salt Lake Center
01:44AM 44.5544 -116.9981 116° Southeast 468 539 35,000  Level Salt Lake Center
01:45AM 44.5197 -116.8319 106° East 465 535 35,000  Level Salt Lake Center
01:46AM 44.4856 -116.6656 106° East 466 536 35,000  Level Salt Lake Center
01:47AM 44.4453 -116.4717 106° East 466 536 35,000  Level Salt Lake Center
01:48AM 44.4094 -116.3064 107° East 467 537 35,000  Level Salt Lake Center
01:49AM 44.3742 -116.1414 107° East 479 551 35,000  Level Salt Lake Center
01:50AM 44.3353 -115.9478 106° East 472 543 35,000  Level Salt Lake Center
01:51AM 44.2983 -115.7789 107° East 476 548 35,000  Level Salt Lake Center
01:52AM 44.2556 -115.5822 107° East 475 547 35,000  Level Salt Lake Center
01:53AM 44.2186 -115.4136 107° East 474 545 35,000  Level Salt Lake Center
01:54AM 44.1806 -115.2447 107° East 476 548 35,000  Level Salt Lake Center
01:55AM 44.1372 -115.0481 107° East 477 549 35,000  Level Salt Lake Center
01:56AM 44.1008 -114.8808 107° East 475 547 35,000  Level Salt Lake Center
01:57AM 44.0628 -114.7128 107° East 475 547 35,000  Level Salt Lake Center
01:58AM 44.0178 -114.5158 108° East 478 550 35,000  Level Salt Lake Center
01:59AM 43.9772 -114.3461 108° East 482 555 35,000  Level Salt Lake Center
02:00AM 43.9369 -114.1739 108° East 488 562 35,000  Level Salt Lake Center
02:01AM 43.8894 -113.9728 108° East 492 566 35,000  Level Salt Lake Center
02:02AM 43.8500 -113.8014 108° East 491 565 35,000  Level Salt Lake Center
02:03AM 43.8089 -113.6278 108° East 495 570 35,000  Level Salt Lake Center
02:04AM 43.7597 -113.4269 109° East 495 570 35,000  Level Salt Lake Center
02:05AM 43.7186 -113.2567 108° East 491 565 35,000  Level Salt Lake Center
02:06AM 43.6775 -113.0856 108° East 492 566 35,000  Level Salt Lake Center
02:07AM 43.6275 -112.8853 109° East 493 567 35,000  Level Salt Lake Center
02:08AM 43.5853 -112.7153 109° East 492 566 35,000  Level Salt Lake Center
02:09AM 43.5439 -112.5486 109° East 485 558 35,000  Level Salt Lake Center
02:10AM 43.4944 -112.3547 109° East 482 555 35,000  Level Salt Lake Center
02:11AM 43.4522 -112.1872 109° East 486 559 35,000  Level Salt Lake Center
02:12AM 43.4086 -112.0217 110° East 483 556 35,000  Level Salt Lake Center
02:13AM 43.3594 -111.8264 109° East 486 559 35,000  Level Salt Lake Center
02:14AM 43.3164 -111.6628 110° East 480 552 35,000  Level Salt Lake Center
02:15AM 43.2742 -111.4997 110° East 476 548 35,000  Level Salt Lake Center
02:16AM 43.2250 -111.3131 110° East 470 541 35,000  Level Salt Lake Center
02:17AM 43.1819 -111.1500 110° East 476 548 35,000  Level Salt Lake Center
02:18AM 43.1389 -110.9886 110° East 474 545 35,000  Level Salt Lake Center
02:19AM 43.0869 -110.7994 111° Southeast 476 548 35,000  Level Salt Lake Center
02:20AM 43.0442 -110.6378 110° East 474 545 35,000  Level Salt Lake Center
02:21AM 42.9994 -110.4800 111° Southeast 469 540 35,000  Level Salt Lake Center
02:22AM 42.9481 -110.2922 110° East 473 544 35,000  Level Salt Lake Center
02:23AM 42.9031 -110.1297 111° Southeast 477 549 35,000  Level Salt Lake Center
02:24AM 42.8581 -109.9667 111° Southeast 481 554 35,000  Level Salt Lake Center
02:25AM 42.8069 -109.7786 110° East 482 555 35,000  Level Salt Lake Center
02:26AM 42.7606 -109.6142 111° Southeast 485 558 35,000  Level Salt Lake Center
02:27AM 42.7161 -109.4550 111° Southeast 476 548 35,000  Level Salt Lake Center
02:28AM 42.6633 -109.2794 112° Southeast 458 527 35,000  Level Salt Lake Center
02:29AM 42.6197 -109.1244 111° Southeast 458 527 35,000  Level Salt Lake Center
02:30AM 42.5744 -108.9681 111° Southeast 462 532 35,000  Level Salt Lake Center
02:31AM 42.5222 -108.7867 111° Southeast 462 532 35,000  Level Salt Lake Center
02:32AM 42.4767 -108.6311 112° Southeast 464 534 35,000  Level Salt Lake Center
02:33AM 42.4303 -108.4739 112° Southeast 467 537 35,000  Level Salt Lake Center
02:34AM 42.3758 -108.2886 112° Southeast 472 543 35,000  Level Salt Lake Center
02:35AM 42.3297 -108.1317 112° Southeast 471 542 35,000  Level Salt Lake Center
02:37AM 42.2819 -107.9717 112° Southeast 476 548 35,000  Level Salt Lake Center
02:38AM 42.2261 -107.7867 112° Southeast 476 548 35,000  Level Salt Lake Center
02:39AM 42.1775 -107.6297 113° Southeast 475 547 35,000  Level Salt Lake Center
02:39AM 42.1342 -107.4947 113° Southeast 481 554 35,000  Level Denver Center
02:40AM 42.0864 -107.3378 112° Southeast 476 548 35,000  Level Denver Center
02:41AM 42.0369 -107.1811 113° Southeast 475 547 35,000  Level Denver Center
02:42AM 41.9792 -106.9983 113° Southeast 475 547 35,000  Level Denver Center
02:43AM 41.9319 -106.8425 112° Southeast 472 543 35,000  Level Denver Center
02:44AM 41.8825 -106.6900 113° Southeast 465 535 35,000  Level Denver Center
02:45AM 41.8247 -106.5075 113° Southeast 465 535 35,000  Level Denver Center
02:46AM 41.7764 -106.3564 113° Southeast 463 533 35,000  Level Denver Center
02:47AM 41.7267 -106.2047 114° Southeast 466 536 35,000  Level Denver Center
02:48AM 41.6781 -106.0539 113° Southeast 463 533 35,000  Level Denver Center
02:49AM 41.6211 -105.8783 113° Southeast 463 533 35,000  Level Denver Center
02:50AM 41.5722 -105.7300 114° Southeast 459 528 35,000  Level Denver Center
02:51AM 41.5236 -105.5786 113° Southeast 463 533 35,000  Level Denver Center
02:52AM 41.4650 -105.4022 114° Southeast 467 537 35,000  Level Denver Center
02:53AM 41.4144 -105.2528 114° Southeast 466 536 35,000  Level Denver Center
02:54AM 41.3639 -105.1003 114° Southeast 467 537 35,000  Level Denver Center
02:55AM 41.3047 -104.9239 114° Southeast 468 539 35,000  Level Denver Center
02:56AM 41.2533 -104.7739 114° Southeast 469 540 35,000  Level Denver Center
02:57AM 41.2006 -104.6200 114° Southeast 475 547 35,000  Level Denver Center
02:58AM 41.1408 -104.4417 114° Southeast 474 545 35,000  Level Denver Center
03:00AM 41.0903 -104.2953 115° Southeast 465 535 35,000  Level Denver Center
03:01AM 41.0414 -104.1567 115° Southeast 446 513 35,000  Level Denver Center
03:02AM 40.9822 -103.9850 114° Southeast 448 516 35,000  Level Denver Center
03:03AM 40.9286 -103.8333 115° Southeast 453 521 35,000  Level Denver Center
03:04AM 40.8756 -103.6819 115° Southeast 454 522 35,000  Level Denver Center
03:05AM 40.8214 -103.5292 115° Southeast 457 526 35,000  Level Denver Center
03:06AM 40.7672 -103.3769 115° Southeast 459 528 35,000  Level Denver Center
03:07AM 40.7114 -103.2236 116° Southeast 461 531 35,000  Level Denver Center
03:08AM 40.6564 -103.0703 115° Southeast 462 532 35,000  Level Denver Center
03:09AM 40.6011 -102.9169 115° Southeast 463 533 35,000  Level Denver Center
03:10AM 40.5450 -102.7619 115° Southeast 468 539 35,000  Level Denver Center
03:11AM 40.4928 -102.6203 116° Southeast 472 543 35,000  Level Denver Center
03:12AM 40.4303 -102.4469 115° Southeast 472 543 35,000 -240 Level Denver Center
03:13AM 40.3753 -102.2981 116° Southeast 474 545 34,600 -480 Descending Denver Center
03:14AM 40.3203 -102.1506 116° Southeast 473 544 34,100 -840 Descending Denver Center
03:15AM 40.2564 -101.9808 116° Southeast 469 540 33,000 -600 Descending Denver Center
03:16AM 40.2008 -101.8319 116° Southeast 475 547 33,000  Level Denver Center
03:17AM 40.1447 -101.6844 116° Southeast 475 547 33,000  Level Denver Center
03:18AM 40.0797 -101.5114 116° Southeast 478 550 33,000  Level Denver Center
03:19AM 40.0233 -101.3633 116° Southeast 478 550 33,000  Level Denver Center
03:20AM 39.9658 -101.2153 117° Southeast 481 554 33,000  Level Denver Center
03:21AM 39.8986 -101.0417 117° Southeast 483 556 33,000  Level Denver Center
03:22AM 39.8394 -100.8897 117° Southeast 491 565 33,000  Level Denver Center
03:23AM 39.7711 -100.7139 117° Southeast 490 564 33,000  Level Denver Center
03:24AM 39.7131 -100.5656 117° Southeast 486 559 33,000  Level Denver Center
03:25AM 39.6564 -100.4208 117° Southeast 474 545 33,000  Level Denver Center
03:26AM 39.5906 -100.2558 117° Southeast 468 539 33,000  Level Denver Center
03:27AM 39.5336 -100.1142 117° Southeast 464 534 33,000  Level Denver Center
03:28AM 39.4772 -99.9706 117° Southeast 466 536 33,000  Level Denver Center
03:29AM 39.4094 -99.8017 117° Southeast 473 544 33,000  Level Denver Center
03:30AM 39.3517 -99.6611 118° Southeast 467 537 33,000  Level Denver Center
03:31AM 39.2939 -99.5175 117° Southeast 470 541 33,000  Level Denver Center
03:32AM 39.2269 -99.3519 118° Southeast 468 539 33,000  Level Denver Center
03:33AM 39.1667 -99.2078 118° Southeast 468 539 33,000  Level Denver Center
03:34AM 39.1089 -99.0667 118° Southeast 465 535 33,000  Level Denver Center
03:35AM 39.0489 -98.9200 118° Southeast 466 536 33,000  Level Denver Center
03:36AM 38.9886 -98.7747 118° Southeast 462 532 33,000  Level Denver Center
03:37AM 38.8936 -98.5514 119° Southeast 466 536 33,000  Level Kansas City Center
03:38AM 38.8331 -98.4022 117° Southeast 470 541 33,000  Level Kansas City Center
03:39AM 38.7700 -98.2564 119° Southeast 468 539 33,000  Level Kansas City Center
03:40AM 38.7086 -98.1103 118° Southeast 465 535 33,000  Level Kansas City Center
03:41AM 38.6461 -97.9647 119° Southeast 465 535 33,000  Level Kansas City Center
03:42AM 38.5844 -97.8203 119° Southeast 461 531 33,000  Level Kansas City Center
03:43AM 38.5222 -97.6753 119° Southeast 463 533 33,000  Level Kansas City Center
03:44AM 38.4594 -97.5306 119° Southeast 463 533 33,000 480 Level Kansas City Center
03:45AM 38.3978 -97.3872 119° Southeast 460 529 34,000 1,020 Climbing Kansas City Center
03:46AM 38.3361 -97.2475 119° Southeast 451 519 35,100 1,020 Climbing Kansas City Center
03:47AM 38.2756 -97.1089 119° Southeast 447 514 36,100 900 Climbing Kansas City Center
03:48AM 38.2122 -96.9656 119° Southeast 451 519 37,000 420 Climbing Kansas City Center
03:49AM 38.1528 -96.8294 119° Southeast 450 518 37,000  Level Kansas City Center
03:50AM 38.0897 -96.6897 120° Southeast 453 521 37,000  Level Kansas City Center
03:51AM 38.0278 -96.5486 119° Southeast 457 526 37,000  Level Kansas City Center
03:52AM 37.9647 -96.4094 120° Southeast 454 522 37,000  Level Kansas City Center
03:53AM 37.9019 -96.2706 120° Southeast 455 524 37,000  Level Kansas City Center
03:54AM 37.8394 -96.1328 120° Southeast 450 518 37,000  Level Kansas City Center
03:55AM 37.7794 -96.0017 120° Southeast 443 510 37,000  Level Kansas City Center
03:56AM 37.7169 -95.8642 120° Southeast 448 516 37,000  Level Kansas City Center
03:57AM 37.6542 -95.7269 120° Southeast 449 517 37,000  Level Kansas City Center
03:58AM 37.5919 -95.5900 120° Southeast 448 516 37,000  Level Kansas City Center
03:59AM 37.5278 -95.4531 121° Southeast 450 518 37,000  Level Kansas City Center
04:00AM 37.4633 -95.3133 120° Southeast 455 524 37,000  Level Kansas City Center
04:02AM 37.3986 -95.1761 121° Southeast 456 525 37,000  Level Kansas City Center
04:03AM 37.3342 -95.0372 120° Southeast 456 525 37,000  Level Kansas City Center
04:04AM 37.2700 -94.8997 120° Southeast 456 525 37,000  Level Kansas City Center
04:05AM 37.2039 -94.7611 121° Southeast 459 528 37,000  Level Kansas City Center
04:06AM 37.1383 -94.6231 121° Southeast 459 528 37,000  Level Kansas City Center
04:07AM 37.0728 -94.4856 121° Southeast 458 527 37,000  Level Kansas City Center
04:08AM 37.0072 -94.3475 121° Southeast 459 528 37,000  Level Kansas City Center
04:09AM 36.9417 -94.2103 121° Southeast 458 527 37,000  Level Kansas City Center
04:10AM 36.8753 -94.0736 121° Southeast 457 526 37,000  Level Kansas City Center
04:11AM 36.8078 -93.9356 121° Southeast 460 529 37,000  Level Kansas City Center
04:12AM 36.7394 -93.7978 122° Southeast 463 533 37,000  Level Kansas City Center
04:13AM 36.6711 -93.6567 121° Southeast 466 536 37,000  Level Kansas City Center
04:14AM 36.6036 -93.5192 121° Southeast 466 536 37,000  Level Kansas City Center
04:15AM 36.5364 -93.3797 121° Southeast 467 537 37,000  Level Kansas City Center
04:16AM 36.4697 -93.2417 121° Southeast 467 537 37,000  Level Kansas City Center
04:17AM 36.4017 -93.1064 122° Southeast 463 533 37,000  Level Kansas City Center
04:17AM 36.3456 -92.9981 123° Southeast 463 533 37,000  Level Memphis Center
04:18AM 36.2794 -92.8594 121° Southeast 463 533 37,000  Level Memphis Center
04:19AM 36.2111 -92.7286 123° Southeast 463 533 37,000  Level Memphis Center
04:20AM 36.1450 -92.5931 121° Southeast 463 533 37,000  Level Memphis Center
04:21AM 36.0764 -92.4578 122° Southeast 463 533 37,000  Level Memphis Center
04:22AM 36.0097 -92.3253 122° Southeast 463 533 37,000  Level Memphis Center
04:23AM 35.9408 -92.1903 122° Southeast 463 533 37,000  Level Memphis Center
04:24AM 35.8719 -92.0556 122° Southeast 463 533 37,000  Level Memphis Center
04:25AM 35.8047 -91.9236 122° Southeast 463 533 37,000  Level Memphis Center
04:26AM 35.7294 -91.7789 123° Southeast 458 527 37,000  Level Memphis Center
04:27AM 35.6600 -91.6422 122° Southeast 464 534 37,000  Level Memphis Center
04:28AM 35.5903 -91.5111 123° Southeast 464 534 37,000  Level Memphis Center
04:29AM 35.5267 -91.3878 122° Southeast 464 534 37,000  Level Memphis Center
04:30AM 35.4506 -91.2439 123° Southeast 464 534 37,000  Level Memphis Center
04:31AM 35.3786 -91.1058 123° Southeast 464 534 37,000  Level Memphis Center
04:32AM 35.3083 -90.9728 123° Southeast 464 534 37,000  Level Memphis Center
04:33AM 35.2358 -90.8375 123° Southeast 464 534 37,000  Level Memphis Center
04:34AM 35.1656 -90.7050 123° Southeast 470 541 37,000  Level Memphis Center
04:35AM 35.0928 -90.5653 122° Southeast 470 541 37,000  Level Memphis Center
04:36AM 35.0197 -90.4306 123° Southeast 470 541 37,000  Level Memphis Center
04:37AM 34.9447 -90.2964 124° Southeast 480 552 37,000  Level Memphis Center
04:38AM 34.8694 -90.1572 123° Southeast 480 552 37,000  Level Memphis Center
04:39AM 34.7942 -90.0258 125° Southeast 479 551 37,000  Level Memphis Center
04:40AM 34.7122 -89.8847 125° Southeast 501 577 37,000  Level Memphis Center
04:41AM 34.6386 -89.7411 122° Southeast 507 583 37,000  Level Memphis Center
04:42AM 34.5647 -89.6006 123° Southeast 501 577 37,000  Level Memphis Center
04:43AM 34.4886 -89.4600 123° Southeast 501 577 37,000  Level Memphis Center
04:44AM 34.4147 -89.3250 124° Southeast 496 571 37,000  Level Memphis Center
04:45AM 34.3383 -89.1875 124° Southeast 496 571 37,000  Level Memphis Center
04:46AM 34.2703 -89.0653 124° Southeast 496 571 37,000  Level Memphis Center
04:47AM 34.1917 -88.9258 124° Southeast 496 571 37,000  Level Memphis Center
04:48AM 34.1106 -88.7817 124° Southeast 483 556 37,000  Level Memphis Center
04:49AM 34.0314 -88.6453 125° Southeast 488 562 37,000  Level Memphis Center
04:50AM 33.9544 -88.5092 124° Southeast 488 562 37,000  Level Memphis Center
04:52AM 33.8139 -88.2567 124° Southeast 505 581 37,000  Level Atlanta Center
04:53AM 33.7369 -88.1206 124° Southeast 500 575 37,000  Level Atlanta Center
04:54AM 33.6561 -87.9819 125° Southeast 500 575 37,000  Level Atlanta Center
04:55AM 33.5769 -87.8436 124° Southeast 500 575 37,000  Level Atlanta Center
04:56AM 33.4975 -87.7081 125° Southeast 505 581 37,000  Level Atlanta Center
04:57AM 33.4200 -87.5731 124° Southeast 505 581 37,000  Level Atlanta Center
04:58AM 33.3364 -87.4328 125° Southeast 505 581 37,000  Level Atlanta Center
04:59AM 33.2586 -87.2956 124° Southeast 510 587 37,000  Level Atlanta Center
05:00AM 33.1786 -87.1586 125° Southeast 510 587 37,000  Level Atlanta Center
05:01AM 33.1086 -87.0369 124° Southeast 510 587 37,000  Level Atlanta Center
05:02AM 33.0306 -86.9006 124° Southeast 505 581 37,000  Level Atlanta Center
05:03AM 32.9458 -86.7642 126° Southeast 505 581 37,000  Level Atlanta Center
05:04AM 32.8694 -86.6306 124° Southeast 505 581 37,000  Level Atlanta Center
05:05AM 32.7803 -86.5044 130° Southeast 505 581 37,000  Level Atlanta Center
05:06AM 32.6825 -86.3833 134° Southeast 500 575 37,000  Level Atlanta Center
05:07AM 32.5886 -86.2650 133° Southeast 495 570 37,000  Level Atlanta Center
05:08AM 32.4906 -86.1492 135° Southeast 495 570 37,000  Level Atlanta Center
05:09AM 32.3922 -86.0339 135° Southeast 495 570 37,000  Level Atlanta Center
05:10AM 32.3022 -85.9139 132° Southeast 495 570 37,000  Level Atlanta Center
05:13AM 32.0661 -85.6236 134° Southeast 488 562 37,000  Level Jacksonville Center
05:14AM 31.9744 -85.5131 134° Southeast 483 556 37,000  Level Jacksonville Center
05:15AM 31.8786 -85.3978 134° Southeast 483 556 37,000  Level Jacksonville Center
05:16AM 31.7847 -85.2853 134° Southeast 483 556 37,000  Level Jacksonville Center
05:17AM 31.6889 -85.1731 135° Southeast 483 556 37,000  Level Jacksonville Center
05:18AM 31.5867 -85.0486 134° Southeast 483 556 37,000  Level Jacksonville Center
05:19AM 31.4944 -84.9342 133° Southeast 483 556 37,000  Level Jacksonville Center
05:20AM 31.3981 -84.8203 135° Southeast 489 563 37,000  Level Jacksonville Center
05:21AM 31.3039 -84.7064 134° Southeast 489 563 37,000  Level Jacksonville Center
05:22AM 31.2072 -84.5953 135° Southeast 484 557 37,000  Level Jacksonville Center
05:23AM 31.1147 -84.4844 134° Southeast 484 557 37,000  Level Jacksonville Center
05:24AM 31.0181 -84.3689 134° Southeast 484 557 37,000  Level Jacksonville Center
05:25AM 30.9231 -84.2583 135° Southeast 484 557 37,000  Level Jacksonville Center
05:26AM 30.8283 -84.1458 134° Southeast 484 557 37,000  Level Jacksonville Center
05:27AM 30.7333 -84.0333 134° Southeast 484 557 37,000  Level Jacksonville Center
05:28AM 30.6361 -83.9258 136° Southeast 484 557 37,000  Level Jacksonville Center
05:29AM 30.5472 -83.8164 133° Southeast 484 557 37,000  Level Jacksonville Center
05:30AM 30.4539 -83.7072 135° Southeast 479 551 37,000  Level Jacksonville Center
05:31AM 30.3628 -83.6003 135° Southeast 479 551 37,000  Level Jacksonville Center
05:32AM 30.2672 -83.4914 135° Southeast 479 551 37,000  Level Jacksonville Center
05:33AM 30.1736 -83.3850 135° Southeast 474 545 37,000  Level Jacksonville Center
05:34AM 30.0800 -83.2767 135° Southeast 474 545 37,000 -180 Level Jacksonville Center
05:35AM 29.9822 -83.1683 136° Southeast 474 545 36,700 -660 Descending Jacksonville Center
05:36AM 29.8864 -83.0603 136° Southeast 481 554 35,700 -1,500 Descending Jacksonville Center
05:37AM 29.7947 -82.9547 135° Southeast 459 528 33,700 -2,460 Descending Jacksonville Center
05:38AM 29.7028 -82.8494 135° Southeast 471 542 30,800 -2,580 Descending Jacksonville Center
05:39AM 29.6150 -82.7517 136° Southeast 451 519 28,600 -2,220 Descending Jacksonville Center
05:40AM 29.5356 -82.6611 135° Southeast 445 512 26,400 -2,100 Descending Jacksonville Center
05:41AM 29.4497 -82.5658 136° Southeast 445 512 24,400 -1,980 Descending Jacksonville Center
05:42AM 29.3703 -82.4756 135° Southeast 427 491 22,500 -1,920 Descending Jacksonville Center
05:43AM 29.2947 -82.3878 135° Southeast 405 466 20,600 -1,920 Descending Jacksonville Center
05:44AM 29.2192 -82.3050 136° Southeast 385 443 18,700 -1,800 Descending Jacksonville Center
05:45AM 29.1458 -82.2244 136° Southeast 373 429 17,000 -1,800 Descending Jacksonville Center
05:46AM 29.0744 -82.1467 136° Southeast 361 415 15,100 -1,860 Descending Jacksonville Center
05:47AM 29.0072 -82.0686 135° Southeast 355 409 13,300 -1,800 Descending Jacksonville Center
05:48AM 28.9397 -81.9958 137° Southeast 343 395 11,600 -1,200 Descending Jacksonville Center
05:49AM 28.8789 -81.9253 135° Southeast 324 373 11,000 -300 Descending Jacksonville Center
05:50AM 28.8333 -81.8500 125° Southeast 295 339 11,100 -300 Climbing Orlando TRACON
05:51AM 28.8000 -81.7667 115° Southeast 306 352 10,500 -1,080 Descending Orlando TRACON
05:52AM 28.7667 -81.6833 115° Southeast 287 330 9,000 -1,620 Descending Orlando TRACON
05:53AM 28.7333 -81.6000 115° Southeast 283 326 7,300 -1,200 Descending Orlando TRACON
05:54AM 28.7000 -81.5333 120° Southeast 249 287 6,700 -1,080 Descending Orlando TRACON
05:55AM 28.6667 -81.4500 114° Southeast 234 269 5,100 -1,200 Descending Orlando TRACON
05:56AM 28.6500 -81.3833 106° East 203 234 4,100 -1,020 Descending Orlando TRACON
05:57AM 28.6167 -81.3500 139° Southeast 181 208 3,100 -900 Descending Orlando TRACON
05:58AM 28.5833 -81.3333 156° South 152 175 2,500 -720 Descending Orlando TRACON
05:59AM 28.5333 -81.3333 180° South 151 174 1,800 -780 Descending Orlando TRACON
06:00AM 28.5000 -81.3333 180° South 146 168 1,000 -840 Descending Orlando TRACON
06:02AM 28.4294 -81.3090 180° South  Level Estimated
06:09AM 28.4294 -81.3090 24° Northeast  Level Estimated
06:10AM 28.4294 -81.3090 24° Northeast  Level Estimated
06:11AM 28.4294 -81.3090 24° Northeast  Level Estimated
06:12AM 28.4294 -81.3090 24° Northeast  Level Estimated